createdAt,value
2024-05-09T00:00:31.619Z,97455.84
2024-05-09T00:03:30.545Z,97452.91
2024-05-09T00:06:22.496Z,97456.88
2024-05-09T00:09:14.354Z,97464.34
2024-05-09T00:12:06.473Z,97461.44
2024-05-09T00:14:58.538Z,97468.88
2024-05-09T00:17:50.564Z,97468.31
2024-05-09T00:20:42.723Z,97481.03
2024-05-09T00:23:34.925Z,97472.56
2024-05-09T00:26:27.047Z,97471.50
2024-05-09T00:29:18.997Z,97480.09
2024-05-09T00:32:11.224Z,97469.44
2024-05-09T00:35:03.266Z,97467.44
2024-05-09T00:37:55.307Z,97467.78
2024-05-09T00:40:47.463Z,97455.31
2024-05-09T00:43:40.123Z,97449.72
2024-05-09T00:46:32.066Z,97459.84
2024-05-09T00:49:26.669Z,97448.97
2024-05-09T00:52:18.821Z,97449.56
2024-05-09T00:55:10.854Z,97455.50
2024-05-09T00:58:05.102Z,97442.63
2024-05-09T01:01:01.545Z,97451.59
2024-05-09T01:03:53.929Z,97440.16
2024-05-09T01:06:46.147Z,97440.94
2024-05-09T01:09:38.080Z,97432.19
2024-05-09T01:12:29.982Z,97433.88
2024-05-09T01:15:21.910Z,97434.88
2024-05-09T01:18:14.439Z,97430.84
2024-05-09T01:21:06.459Z,97424.16
2024-05-09T01:23:58.360Z,97420.63
2024-05-09T01:26:50.720Z,97420.44
2024-05-09T01:29:42.649Z,97420.47
2024-05-09T01:32:34.705Z,97415.63
2024-05-09T01:35:26.804Z,97423.91
2024-05-09T01:38:18.801Z,97420.59
2024-05-09T01:41:10.776Z,97432.25
2024-05-09T01:44:02.687Z,97437.34
2024-05-09T01:46:54.719Z,97438.38
2024-05-09T01:49:46.662Z,97431.97
2024-05-09T01:52:38.610Z,97431.44
2024-05-09T01:55:30.512Z,97430.91
2024-05-09T01:58:22.512Z,97435.16
2024-05-09T02:01:14.678Z,97439.81
2024-05-09T02:04:06.988Z,97437.59
2024-05-09T02:06:59.079Z,97436.81
2024-05-09T02:09:54.091Z,97438.22
2024-05-09T02:12:46.007Z,97438.50
2024-05-09T02:15:38.027Z,97431.88
2024-05-09T02:18:30.042Z,97432.16
2024-05-09T02:21:22.044Z,97435.03
2024-05-09T02:24:13.968Z,97435.56
2024-05-09T02:27:05.915Z,97436.91
2024-05-09T02:29:57.893Z,97437.75
2024-05-09T02:32:49.939Z,97433.53
2024-05-09T02:35:43.668Z,97435.16
2024-05-09T02:38:37.022Z,97439.13
2024-05-09T02:41:29.093Z,97434.34
2024-05-09T02:44:21.223Z,97433.03
2024-05-09T02:47:13.341Z,97433.84
2024-05-09T02:50:07.868Z,97430.06
2024-05-09T02:52:59.968Z,97440.25
2024-05-09T02:55:51.901Z,97440.19
2024-05-09T02:58:43.916Z,97447.22
2024-05-09T03:01:35.954Z,97441.25
2024-05-09T03:04:28.029Z,97440.72
2024-05-09T03:07:20.387Z,97439.84
2024-05-09T03:10:18.462Z,97442.34
2024-05-09T03:13:15.963Z,97446.53
2024-05-09T03:16:08.347Z,97446.22
2024-05-09T03:19:00.361Z,97438.13
2024-05-09T03:21:52.375Z,97437.69
2024-05-09T03:24:44.319Z,97437.06
2024-05-09T03:27:37.921Z,97430.34
2024-05-09T03:30:38.936Z,97434.00
2024-05-09T03:33:34.873Z,97433.34
2024-05-09T03:36:27.009Z,97438.50
2024-05-09T03:39:18.965Z,97443.78
2024-05-09T03:42:10.949Z,97440.97
2024-05-09T03:45:02.904Z,97445.63
2024-05-09T03:47:55.105Z,97437.41
2024-05-09T03:50:47.383Z,97443.25
2024-05-09T03:53:39.472Z,97443.34
2024-05-09T03:56:31.691Z,97439.88
2024-05-09T03:59:23.705Z,97448.28
2024-05-09T04:02:15.739Z,97453.03
2024-05-09T04:05:07.743Z,97457.41
2024-05-09T04:07:59.887Z,97458.22
2024-05-09T04:10:51.923Z,97454.78
2024-05-09T04:13:43.916Z,97462.59
2024-05-09T04:16:35.863Z,97467.28
2024-05-09T04:19:28.587Z,97465.94
2024-05-09T04:22:20.576Z,97460.59
2024-05-09T04:25:12.671Z,97461.44
2024-05-09T04:28:05.167Z,97477.97
2024-05-09T04:30:57.235Z,97480.06
2024-05-09T04:33:49.316Z,97482.47
2024-05-09T04:36:43.951Z,97482.72
2024-05-09T04:39:36.385Z,97483.97
2024-05-09T04:42:28.350Z,97480.47
2024-05-09T04:45:20.239Z,97474.53
2024-05-09T04:48:12.329Z,97484.66
2024-05-09T04:51:07.063Z,97484.28
2024-05-09T04:53:59.060Z,97473.16
2024-05-09T04:56:50.960Z,97479.88
2024-05-09T04:59:42.904Z,97477.72
2024-05-09T05:02:35.249Z,97490.03
2024-05-09T05:05:27.274Z,97485.53
2024-05-09T05:08:19.680Z,97485.66
2024-05-09T05:11:12.354Z,97488.22
2024-05-09T05:14:04.402Z,97486.09
2024-05-09T05:16:56.410Z,97475.22
2024-05-09T05:19:48.536Z,97480.44
2024-05-09T05:22:40.543Z,97468.88
2024-05-09T05:25:32.427Z,97471.56
2024-05-09T05:28:24.522Z,97476.59
2024-05-09T05:31:16.496Z,97480.91
2024-05-09T05:34:08.423Z,97482.19
2024-05-09T05:37:00.286Z,97473.03
2024-05-09T05:39:52.165Z,97477.56
2024-05-09T05:42:44.095Z,97485.19
2024-05-09T05:45:36.395Z,97479.66
2024-05-09T05:48:29.077Z,97485.09
2024-05-09T05:51:21.306Z,97484.28
2024-05-09T05:54:13.290Z,97489.63
2024-05-09T05:57:05.173Z,97492.34
2024-05-09T05:59:57.044Z,97481.16
2024-05-09T06:02:49.147Z,97483.00
2024-05-09T06:05:41.523Z,97485.63
2024-05-09T06:08:33.633Z,97495.03
2024-05-09T06:11:25.702Z,97487.75
2024-05-09T06:14:17.804Z,97486.69
2024-05-09T06:17:09.999Z,97486.53
2024-05-09T06:20:02.053Z,97478.03
2024-05-09T06:22:54.057Z,97480.72
2024-05-09T06:25:46.013Z,97483.69
2024-05-09T06:28:37.973Z,97486.91
2024-05-09T06:31:29.848Z,97494.41
2024-05-09T06:34:21.821Z,97500.88
2024-05-09T06:37:13.775Z,97495.34
2024-05-09T06:40:07.576Z,97501.03
2024-05-09T06:43:01.683Z,97492.06
2024-05-09T06:45:53.600Z,97501.22
2024-05-09T06:48:45.844Z,97503.06
2024-05-09T06:51:38.305Z,97504.44
2024-05-09T06:54:30.220Z,97504.78
2024-05-09T06:57:22.108Z,97493.06
2024-05-09T07:00:22.712Z,97496.25
2024-05-09T07:03:22.322Z,97491.34
2024-05-09T07:06:14.319Z,97497.44
2024-05-09T07:09:06.259Z,97489.91
2024-05-09T07:11:58.212Z,97497.53
2024-05-09T07:14:50.578Z,97497.59
2024-05-09T07:17:42.767Z,97491.25
2024-05-09T07:20:35.312Z,97491.09
2024-05-09T07:23:28.373Z,97490.88
2024-05-09T07:26:20.410Z,97482.41
2024-05-09T07:29:12.392Z,97480.75
2024-05-09T07:32:04.787Z,97484.00
2024-05-09T07:34:56.732Z,97472.25
2024-05-09T07:37:48.657Z,97470.97
2024-05-09T07:40:40.643Z,97473.84
2024-05-09T07:43:32.665Z,97472.56
2024-05-09T07:47:20.223Z,97471.38
2024-05-09T07:53:32.684Z,97462.06
2024-05-09T07:55:43.259Z,97461.19
2024-05-09T07:58:35.226Z,97460.63
2024-05-09T08:01:27.317Z,97462.97
2024-05-09T08:04:19.638Z,97457.50
2024-05-09T08:07:11.963Z,97461.81
2024-05-09T08:10:05.260Z,97465.16
2024-05-09T08:12:58.400Z,97454.44
2024-05-09T08:15:51.551Z,97456.53
2024-05-09T08:18:43.635Z,97448.31
2024-05-09T08:21:35.654Z,97455.22
2024-05-09T08:24:27.602Z,97453.53
2024-05-09T08:27:19.525Z,97452.28
2024-05-09T08:30:18.955Z,97444.28
2024-05-09T08:33:16.963Z,97438.13
2024-05-09T08:36:09.000Z,97436.84
2024-05-09T08:39:00.899Z,97446.25
2024-05-09T08:41:52.781Z,97446.06
2024-05-09T08:44:44.877Z,97438.47
2024-05-09T08:47:37.094Z,97428.97
2024-05-09T08:50:36.320Z,97438.69
2024-05-09T08:53:31.198Z,97428.69
2024-05-09T08:56:28.248Z,97428.19
2024-05-09T08:59:36.262Z,97430.47
2024-05-09T09:02:28.575Z,97436.53
2024-05-09T09:05:30.234Z,97436.88
2024-05-09T09:08:25.695Z,97429.56
2024-05-09T09:11:17.627Z,97440.84
2024-05-09T09:14:09.567Z,97437.66
2024-05-09T09:17:12.359Z,97440.09
2024-05-09T09:20:05.466Z,97442.25
2024-05-09T09:23:00.837Z,97430.16
2024-05-09T09:25:52.783Z,97432.44
2024-05-09T09:28:44.994Z,97430.84
2024-05-09T09:31:36.957Z,97433.41
2024-05-09T09:34:30.086Z,97428.47
2024-05-09T09:37:27.845Z,97438.47
2024-05-09T09:40:22.396Z,97423.44
2024-05-09T09:43:22.616Z,97428.72
2024-05-09T09:46:17.824Z,97432.44
2024-05-09T09:49:10.152Z,97420.34
2024-05-09T09:52:02.689Z,97420.63
2024-05-09T09:54:57.054Z,97428.13
2024-05-09T09:57:49.210Z,97418.75
2024-05-09T10:00:41.957Z,97420.81
2024-05-09T10:03:34.804Z,97409.06
2024-05-09T10:06:31.351Z,97419.19
2024-05-09T10:09:23.806Z,97404.22
2024-05-09T10:12:15.966Z,97409.22
2024-05-09T10:15:08.702Z,97405.47
2024-05-09T10:18:05.078Z,97398.53
2024-05-09T10:20:57.119Z,97398.41
2024-05-09T10:24:05.178Z,97397.00
2024-05-09T10:26:57.243Z,97400.19
2024-05-09T10:30:00.787Z,97399.34
2024-05-09T10:32:56.543Z,97396.53
2024-05-09T10:35:51.860Z,97397.06
2024-05-09T10:38:43.929Z,97398.03
2024-05-09T10:41:38.163Z,97391.84
2024-05-09T10:44:30.276Z,97394.69
2024-05-09T10:47:23.056Z,97393.31
2024-05-09T10:50:22.314Z,97399.22
2024-05-09T10:53:20.187Z,97401.72
2024-05-09T10:56:15.377Z,97390.19
2024-05-09T10:59:07.347Z,97396.66
2024-05-09T11:02:02.942Z,97391.47
2024-05-09T11:04:55.130Z,97380.53
2024-05-09T11:07:47.482Z,97386.72
2024-05-09T11:10:40.358Z,97382.63
2024-05-09T11:13:34.591Z,97380.13
2024-05-09T11:16:26.557Z,97385.47
2024-05-09T11:19:18.667Z,97378.41
2024-05-09T11:22:10.961Z,97379.56
2024-05-09T11:25:03.313Z,97376.22
2024-05-09T11:27:58.762Z,97377.75
2024-05-09T11:30:51.508Z,97366.59
2024-05-09T11:33:44.634Z,97363.34
2024-05-09T11:36:36.734Z,97369.63
2024-05-09T11:39:28.858Z,97371.75
2024-05-09T11:42:20.786Z,97362.06
2024-05-09T11:45:12.810Z,97365.97
2024-05-09T11:48:05.251Z,97367.69
2024-05-09T11:50:57.259Z,97352.47
2024-05-09T11:53:49.146Z,97358.91
2024-05-09T11:56:41.268Z,97360.34
2024-05-09T11:59:33.165Z,97360.81
2024-05-09T12:02:25.173Z,97355.94
2024-05-09T12:05:17.515Z,97358.22
2024-05-09T12:08:09.935Z,97352.31
2024-05-09T12:11:02.071Z,97341.09
2024-05-09T12:13:54.006Z,97352.31
2024-05-09T12:16:46.098Z,97344.22
2024-05-09T12:19:38.234Z,97335.06
2024-05-09T12:22:30.295Z,97335.47
2024-05-09T12:25:22.212Z,97330.41
2024-05-09T12:28:16.689Z,97341.81
2024-05-09T12:31:09.024Z,97329.06
2024-05-09T12:34:01.065Z,97339.47
2024-05-09T12:36:53.467Z,97333.66
2024-05-09T12:39:45.390Z,97337.75
2024-05-09T12:42:37.381Z,97323.34
2024-05-09T12:45:29.442Z,97331.34
2024-05-09T12:48:21.565Z,97319.16
2024-05-09T12:51:13.547Z,97330.78
2024-05-09T12:54:05.431Z,97328.63
2024-05-09T12:56:57.379Z,97327.50
2024-05-09T12:59:49.451Z,97325.31
2024-05-09T13:02:41.526Z,97330.63
2024-05-09T13:05:33.813Z,97317.94
2024-05-09T13:08:26.708Z,97313.00
2024-05-09T13:11:18.808Z,97318.69
2024-05-09T13:14:10.685Z,97319.00
2024-05-09T13:17:02.688Z,97321.97
2024-05-09T13:19:54.673Z,97315.28
2024-05-09T13:22:46.588Z,97307.06
2024-05-09T13:25:38.571Z,97303.03
2024-05-09T13:28:30.753Z,97303.72
2024-05-09T13:31:22.729Z,97307.25
2024-05-09T13:34:14.688Z,97306.03
2024-05-09T13:37:06.770Z,97309.41
2024-05-09T13:40:03.359Z,97298.44
2024-05-09T13:42:56.167Z,97291.56
2024-05-09T13:45:48.282Z,97289.78
2024-05-09T13:48:40.356Z,97285.97
2024-05-09T13:51:32.317Z,97283.63
2024-05-09T13:54:24.241Z,97286.91
2024-05-09T13:57:16.271Z,97281.50
2024-05-09T14:00:18.225Z,97276.28
2024-05-09T14:03:20.418Z,97274.31
2024-05-09T14:06:13.357Z,97283.25
2024-05-09T14:09:05.361Z,97278.91
2024-05-09T14:11:57.294Z,97271.94
2024-05-09T14:14:49.226Z,97275.13
2024-05-09T14:17:41.281Z,97279.56
2024-05-09T14:20:33.258Z,97280.94
2024-05-09T14:23:25.158Z,97275.09
2024-05-09T14:26:17.179Z,97268.50
2024-05-09T14:29:09.065Z,97273.28
2024-05-09T14:32:02.775Z,97276.75
2024-05-09T14:34:54.742Z,97267.25
2024-05-09T14:37:46.767Z,97267.38
2024-05-09T14:40:42.756Z,97265.09
2024-05-09T14:43:36.075Z,97265.25
2024-05-09T14:46:28.130Z,97254.63
2024-05-09T14:49:20.257Z,97259.31
2024-05-09T14:52:12.381Z,97257.22
2024-05-09T14:55:04.493Z,97255.13
2024-05-09T14:57:56.642Z,97250.72
2024-05-09T15:00:51.106Z,97247.19
2024-05-09T15:03:43.937Z,97256.72
2024-05-09T15:06:38.900Z,97242.72
2024-05-09T15:09:39.772Z,97250.97
2024-05-09T15:12:31.770Z,97246.63
2024-05-09T15:15:23.688Z,97255.31
2024-05-09T15:18:16.403Z,97251.16
2024-05-09T15:21:08.558Z,97248.13
2024-05-09T15:24:00.543Z,97242.00
2024-05-09T15:26:52.707Z,97243.13
2024-05-09T15:29:44.717Z,97244.50
2024-05-09T15:32:36.693Z,97247.91
2024-05-09T15:35:29.293Z,97241.09
2024-05-09T15:38:21.455Z,97241.44
2024-05-09T15:41:13.927Z,97229.19
2024-05-09T15:44:05.809Z,97237.28
2024-05-09T15:46:57.777Z,97234.81
2024-05-09T15:49:49.967Z,97228.53
2024-05-09T15:52:41.915Z,97240.41
2024-05-09T15:55:34.619Z,97236.53
2024-05-09T15:58:28.073Z,97239.94
2024-05-09T16:01:20.083Z,97236.97
2024-05-09T16:04:12.179Z,97233.56
2024-05-09T16:07:04.517Z,97230.78
2024-05-09T16:09:56.709Z,97226.78
2024-05-09T16:12:48.690Z,97229.19
2024-05-09T16:15:40.998Z,97229.78
2024-05-09T16:18:33.138Z,97233.59
2024-05-09T16:21:25.052Z,97222.13
2024-05-09T16:24:17.004Z,97223.47
2024-05-09T16:27:09.162Z,97223.59
2024-05-09T16:30:01.104Z,97220.72
2024-05-09T16:32:53.046Z,97222.44
2024-05-09T16:35:45.169Z,97218.84
2024-05-09T16:38:37.084Z,97224.25
2024-05-09T16:41:28.956Z,97228.84
2024-05-09T16:44:20.809Z,97223.06
2024-05-09T16:47:12.850Z,97218.16
2024-05-09T16:50:08.255Z,97212.19
2024-05-09T16:53:00.440Z,97209.44
2024-05-09T16:55:52.402Z,97219.59
2024-05-09T16:58:44.509Z,97213.09
2024-05-09T17:01:36.471Z,97213.59
2024-05-09T17:04:28.738Z,97213.88
2024-05-09T17:07:22.033Z,97214.16
2024-05-09T17:10:22.512Z,97213.28
2024-05-09T17:13:21.466Z,97206.81
2024-05-09T17:16:14.061Z,97208.00
2024-05-09T17:19:06.071Z,97210.41
2024-05-09T17:21:57.994Z,97203.28
2024-05-09T17:24:50.002Z,97214.75
2024-05-09T17:27:42.003Z,97211.06
2024-05-09T17:30:37.562Z,97219.44
2024-05-09T17:33:31.610Z,97218.72
2024-05-09T17:36:23.699Z,97213.50
2024-05-09T17:39:15.629Z,97217.28
2024-05-09T17:42:07.553Z,97215.78
2024-05-09T17:44:59.536Z,97217.38
2024-05-09T17:47:51.779Z,97218.19
2024-05-09T17:50:43.893Z,97207.38
2024-05-09T17:53:35.894Z,97212.41
2024-05-09T17:56:28.551Z,97211.88
2024-05-09T17:59:20.463Z,97207.00
2024-05-09T18:02:12.609Z,97215.25
2024-05-09T18:05:05.099Z,97214.59
2024-05-09T18:07:57.292Z,97215.25
2024-05-09T18:10:50.657Z,97218.81
2024-05-09T18:13:46.146Z,97218.59
2024-05-09T18:16:38.098Z,97227.47
2024-05-09T18:19:30.183Z,97230.09
2024-05-09T18:22:22.448Z,97222.31
2024-05-09T18:25:14.464Z,97221.91
2024-05-09T18:28:06.955Z,97223.66
2024-05-09T18:30:58.972Z,97227.75
2024-05-09T18:33:51.059Z,97223.53
2024-05-09T18:36:43.542Z,97226.88
2024-05-09T18:39:35.522Z,97228.03
2024-05-09T18:42:27.460Z,97222.69
2024-05-09T18:45:19.428Z,97218.88
2024-05-09T18:48:12.145Z,97225.84
2024-05-09T18:51:04.423Z,97224.91
2024-05-09T18:53:56.300Z,97229.00
2024-05-09T18:56:48.215Z,97227.75
2024-05-09T18:59:40.105Z,97235.63
2024-05-09T19:02:32.233Z,97237.22
2024-05-09T19:05:24.421Z,97235.09
2024-05-09T19:08:16.530Z,97234.09
2024-05-09T19:11:08.467Z,97234.50
2024-05-09T19:14:00.415Z,97246.81
2024-05-09T19:16:52.330Z,97245.34
2024-05-09T19:19:45.663Z,97248.38
2024-05-09T19:22:37.564Z,97248.63
2024-05-09T19:25:29.437Z,97249.41
2024-05-09T19:28:21.509Z,97251.59
2024-05-09T19:31:13.589Z,97257.09
2024-05-09T19:34:05.658Z,97257.47
2024-05-09T19:36:57.803Z,97254.41
2024-05-09T19:39:49.775Z,97254.94
2024-05-09T19:42:41.778Z,97258.19
2024-05-09T19:45:35.153Z,97261.59
2024-05-09T19:48:28.267Z,97266.41
2024-05-09T19:51:20.193Z,97268.25
2024-05-09T19:54:12.079Z,97261.63
2024-05-09T19:57:04.273Z,97260.72
2024-05-09T19:59:56.165Z,97268.25
2024-05-09T20:02:48.361Z,97265.09
2024-05-09T20:05:42.712Z,97268.03
2024-05-09T20:08:34.857Z,97268.66
2024-05-09T20:11:27.174Z,97275.78
2024-05-09T20:14:19.166Z,97265.09
2024-05-09T20:17:11.280Z,97272.16
2024-05-09T20:20:05.889Z,97270.06
2024-05-09T20:22:59.254Z,97273.97
2024-05-09T20:25:51.179Z,97269.25
2024-05-09T20:28:43.065Z,97275.63
2024-05-09T20:31:34.997Z,97278.63
2024-05-09T20:34:26.990Z,97283.31
2024-05-09T20:37:19.376Z,97286.22
2024-05-09T20:40:18.271Z,97278.22
2024-05-09T20:43:17.175Z,97291.03
2024-05-09T20:46:09.225Z,97288.72
2024-05-09T20:49:01.299Z,97281.94
2024-05-09T20:51:53.275Z,97280.06
2024-05-09T20:54:45.278Z,97276.81
2024-05-09T20:57:37.218Z,97267.88
2024-05-09T21:00:35.491Z,97271.19
2024-05-09T21:03:32.075Z,97272.44
2024-05-09T21:06:24.061Z,97270.78
2024-05-09T21:09:16.028Z,97273.78
2024-05-09T21:12:07.929Z,97275.63
2024-05-09T21:14:59.835Z,97272.19
2024-05-09T21:17:51.754Z,97268.50
2024-05-09T21:20:43.736Z,97275.97
2024-05-09T21:23:36.820Z,97267.81
2024-05-09T21:26:28.720Z,97265.53
2024-05-09T21:29:20.706Z,97262.75
2024-05-09T21:32:12.628Z,97265.41
2024-05-09T21:35:04.895Z,97261.81
2024-05-09T21:37:56.801Z,97258.81
2024-05-09T21:40:48.753Z,97262.03
2024-05-09T21:43:40.665Z,97264.00
2024-05-09T21:46:32.775Z,97263.72
2024-05-09T21:49:24.774Z,97261.44
2024-05-09T21:52:16.871Z,97257.31
2024-05-09T21:55:09.036Z,97257.88
2024-05-09T21:58:01.174Z,97260.53
2024-05-09T22:00:53.204Z,97262.72
2024-05-09T22:03:45.324Z,97259.75
2024-05-09T22:06:37.363Z,97261.97
2024-05-09T22:09:29.296Z,97256.59
2024-05-09T22:12:21.187Z,97258.78
2024-05-09T22:15:13.222Z,97261.38
2024-05-09T22:18:06.076Z,97262.03
2024-05-09T22:20:58.249Z,97255.28
2024-05-09T22:23:50.217Z,97259.75
2024-05-09T22:26:42.116Z,97259.16
2024-05-09T22:29:34.343Z,97259.94
2024-05-09T22:32:26.303Z,97267.22
2024-05-09T22:35:18.250Z,97269.72
2024-05-09T22:38:10.189Z,97266.59
2024-05-09T22:41:06.134Z,97263.13
2024-05-09T22:43:58.131Z,97266.53
2024-05-09T22:46:50.053Z,97268.19
2024-05-09T22:49:41.990Z,97269.38
2024-05-09T22:52:33.942Z,97263.44
2024-05-09T22:55:25.900Z,97263.66
2024-05-09T22:58:18.038Z,97268.19
2024-05-09T23:01:14.919Z,97264.53
2024-05-09T23:04:07.043Z,97260.75
2024-05-09T23:06:59.071Z,97259.59
2024-05-09T23:09:51.046Z,97260.16
2024-05-09T23:12:42.998Z,97263.44
2024-05-09T23:15:37.183Z,97262.25
2024-05-09T23:18:29.652Z,97261.84
2024-05-09T23:21:21.590Z,97260.25
2024-05-09T23:24:13.471Z,97257.66
2024-05-09T23:27:05.441Z,97262.03
2024-05-09T23:29:57.576Z,97257.97
2024-05-09T23:32:49.574Z,97255.91
2024-05-09T23:35:42.561Z,97253.41
2024-05-09T23:38:34.442Z,97256.28
2024-05-09T23:41:26.356Z,97255.59
2024-05-09T23:44:18.314Z,97251.13
2024-05-09T23:47:10.876Z,97255.69
2024-05-09T23:50:05.128Z,97255.00
2024-05-09T23:52:58.598Z,97255.28
2024-05-09T23:55:50.520Z,97248.53
2024-05-09T23:58:42.643Z,97251.44
